createdAt,value
2017-03-12T00:00:37.155Z,7.48
2017-03-12T00:01:46.567Z,7.54
2017-03-12T00:02:55.985Z,7.55
2017-03-12T00:04:05.484Z,7.52
2017-03-12T00:05:15.282Z,7.63
2017-03-12T00:06:24.296Z,7.51
2017-03-12T00:07:34.110Z,7.63
2017-03-12T00:08:43.638Z,7.63
2017-03-12T00:09:52.827Z,7.61
2017-03-12T00:11:01.446Z,7.67
2017-03-12T00:12:10.927Z,7.68
2017-03-12T00:13:20.325Z,7.71
2017-03-12T00:14:29.228Z,7.83
2017-03-12T00:15:38.224Z,7.92
2017-03-12T00:16:47.638Z,7.86
2017-03-12T00:17:57.055Z,7.85
2017-03-12T00:19:06.052Z,7.96
2017-03-12T00:20:15.521Z,7.92
2017-03-12T00:21:24.934Z,8.01
2017-03-12T00:22:33.542Z,8.03
2017-03-12T00:23:42.939Z,7.96
2017-03-12T00:24:51.937Z,7.98
2017-03-12T00:26:02.137Z,8.09
2017-03-12T00:27:11.142Z,8.04
2017-03-12T00:28:20.195Z,7.96
2017-03-12T00:29:29.229Z,8.01
2017-03-12T00:30:39.044Z,8.01
2017-03-12T00:31:48.050Z,7.93
2017-03-12T00:32:57.054Z,7.96
2017-03-12T00:34:06.276Z,7.96
2017-03-12T00:35:15.277Z,7.93
2017-03-12T00:36:24.690Z,7.88
2017-03-12T00:37:34.527Z,7.83
2017-03-12T00:38:44.480Z,7.8
2017-03-12T00:39:53.489Z,7.82
2017-03-12T00:41:02.496Z,7.89
2017-03-12T00:42:11.495Z,7.88
2017-03-12T00:43:20.910Z,7.82
2017-03-12T00:44:30.322Z,7.78
2017-03-12T00:45:39.738Z,7.77
2017-03-12T00:46:49.157Z,7.78
2017-03-12T00:47:58.156Z,7.78
2017-03-12T00:49:07.169Z,7.75
2017-03-12T00:50:16.563Z,7.64
2017-03-12T00:51:25.586Z,7.7
2017-03-12T00:52:35.005Z,7.59
2017-03-12T00:53:44.008Z,7.67
2017-03-12T00:54:53.018Z,7.56
2017-03-12T00:56:02.453Z,7.58
2017-03-12T00:57:11.453Z,7.48
2017-03-12T00:58:20.848Z,7.51
2017-03-12T00:59:30.242Z,7.51
2017-03-12T01:00:39.644Z,7.49
2017-03-12T01:01:48.270Z,7.51
2017-03-12T01:02:58.486Z,7.49
2017-03-12T01:04:07.133Z,7.51
2017-03-12T01:05:16.960Z,7.48
2017-03-12T01:06:25.592Z,7.4
2017-03-12T01:07:34.999Z,7.45
2017-03-12T01:08:43.628Z,7.39
2017-03-12T01:09:52.672Z,7.34
2017-03-12T01:11:01.700Z,7.44
2017-03-12T01:12:11.376Z,7.4
2017-03-12T01:13:20.808Z,7.33
2017-03-12T01:14:30.203Z,7.31
2017-03-12T01:15:40.006Z,7.27
2017-03-12T01:16:49.021Z,7.31
2017-03-12T01:17:59.220Z,7.29
2017-03-12T01:19:08.242Z,7.27
2017-03-12T01:20:17.278Z,7.29
2017-03-12T01:21:26.354Z,7.21
2017-03-12T01:22:36.247Z,7.27
2017-03-12T01:23:46.050Z,7.19
2017-03-12T01:24:55.053Z,7.18
2017-03-12T01:26:04.114Z,7.15
2017-03-12T01:27:13.134Z,7.23
2017-03-12T01:28:22.941Z,7.11
2017-03-12T01:29:32.731Z,7.12
2017-03-12T01:30:42.166Z,7.08
2017-03-12T01:31:50.762Z,7.12
2017-03-12T01:32:59.796Z,7.11
2017-03-12T01:34:08.823Z,7.01
2017-03-12T01:35:18.632Z,7.04
2017-03-12T01:36:27.659Z,7.01
2017-03-12T01:37:37.093Z,7.04
2017-03-12T01:38:46.899Z,6.97
2017-03-12T01:39:56.315Z,7
2017-03-12T01:41:05.767Z,6.97
2017-03-12T01:42:15.076Z,7.03
2017-03-12T01:43:24.506Z,6.95
2017-03-12T01:44:33.920Z,7.03
2017-03-12T01:45:43.329Z,7.04
2017-03-12T01:46:51.943Z,6.98
2017-03-12T01:48:01.352Z,7
2017-03-12T01:49:11.010Z,6.97
2017-03-12T01:50:19.640Z,7.03
2017-03-12T01:51:29.043Z,6.95
2017-03-12T01:52:38.042Z,6.93
2017-03-12T01:53:47.045Z,6.94
2017-03-12T01:54:56.436Z,6.9
2017-03-12T01:56:05.890Z,6.91
2017-03-12T01:57:14.897Z,6.9
2017-03-12T01:58:24.712Z,6.88
2017-03-12T01:59:33.978Z,6.79
2017-03-12T02:00:43.376Z,6.85
2017-03-12T02:01:52.372Z,6.82
2017-03-12T02:03:01.383Z,6.8
2017-03-12T02:04:10.401Z,6.83
2017-03-12T02:05:19.474Z,6.76
2017-03-12T02:06:28.117Z,6.76
2017-03-12T02:07:37.532Z,6.85
2017-03-12T02:08:46.540Z,6.79
2017-03-12T02:09:55.157Z,6.75
2017-03-12T02:11:04.160Z,6.82
2017-03-12T02:12:13.157Z,6.79
2017-03-12T02:13:21.798Z,6.72
2017-03-12T02:14:32.014Z,6.76
2017-03-12T02:15:41.421Z,6.72
2017-03-12T02:16:50.442Z,6.76
2017-03-12T02:17:59.847Z,6.73
2017-03-12T02:19:09.244Z,6.73
2017-03-12T02:20:17.872Z,6.62
2017-03-12T02:21:27.292Z,6.64
2017-03-12T02:22:35.932Z,6.62
2017-03-12T02:23:45.737Z,6.61
2017-03-12T02:24:54.734Z,6.64
2017-03-12T02:26:04.534Z,6.58
2017-03-12T02:27:14.331Z,6.6
2017-03-12T02:28:23.745Z,6.58
2017-03-12T02:29:33.569Z,6.61
2017-03-12T02:30:42.969Z,6.62
2017-03-12T02:31:51.985Z,6.6
2017-03-12T02:33:00.580Z,6.6
2017-03-12T02:34:09.582Z,6.61
2017-03-12T02:35:18.593Z,6.57
2017-03-12T02:36:28.664Z,6.58
2017-03-12T02:37:38.089Z,6.61
2017-03-12T02:38:46.715Z,6.58
2017-03-12T02:39:56.518Z,6.6
2017-03-12T02:41:05.136Z,6.61
2017-03-12T02:42:14.137Z,6.6
2017-03-12T02:43:23.145Z,6.61
2017-03-12T02:44:32.139Z,6.49
2017-03-12T02:45:41.986Z,6.49
2017-03-12T02:46:51.382Z,6.51
2017-03-12T02:47:59.987Z,6.46
2017-03-12T02:49:09.411Z,6.37
2017-03-12T02:50:18.017Z,6.42
2017-03-12T02:51:26.619Z,6.37
2017-03-12T02:52:36.045Z,6.33
2017-03-12T02:53:45.072Z,6.37
2017-03-12T02:54:54.132Z,6.26
2017-03-12T02:56:03.539Z,6.29
2017-03-12T02:57:12.185Z,6.26
2017-03-12T02:58:21.193Z,6.25
2017-03-12T02:59:30.626Z,6.21
2017-03-12T03:00:40.440Z,6.2
2017-03-12T03:01:49.455Z,6.2
2017-03-12T03:02:58.062Z,6.18
2017-03-12T03:04:07.100Z,6.13
2017-03-12T03:05:15.694Z,6.14
2017-03-12T03:06:24.300Z,6.1
2017-03-12T03:07:33.315Z,6.14
2017-03-12T03:08:42.344Z,6.13
2017-03-12T03:09:51.368Z,6.05
2017-03-12T03:11:01.170Z,6.03
2017-03-12T03:12:09.781Z,6.1
2017-03-12T03:13:18.385Z,5.98
2017-03-12T03:14:26.987Z,6.03
2017-03-12T03:15:36.404Z,6.06
2017-03-12T03:16:45.437Z,6.07
2017-03-12T03:17:55.634Z,6.03
2017-03-12T03:19:04.654Z,6
2017-03-12T03:20:13.669Z,6.03
2017-03-12T03:21:23.086Z,6.06
2017-03-12T03:22:32.116Z,6.06
2017-03-12T03:23:41.529Z,5.95
2017-03-12T03:24:50.538Z,6.02
2017-03-12T03:25:59.143Z,6.15
2017-03-12T03:27:07.759Z,6
2017-03-12T03:28:16.775Z,6.03
2017-03-12T03:29:25.788Z,5.98
2017-03-12T03:30:35.218Z,6
2017-03-12T03:31:44.616Z,6.03
2017-03-12T03:32:54.006Z,6
2017-03-12T03:34:03.017Z,5.96
2017-03-12T03:35:12.464Z,5.99
2017-03-12T03:36:21.097Z,5.91
2017-03-12T03:37:30.495Z,5.96
2017-03-12T03:38:39.889Z,5.91
2017-03-12T03:39:48.493Z,5.92
2017-03-12T03:40:57.909Z,6
2017-03-12T03:42:06.517Z,5.91
2017-03-12T03:43:15.534Z,5.95
2017-03-12T03:44:24.942Z,5.91
2017-03-12T03:45:34.625Z,5.91
2017-03-12T03:46:43.636Z,5.81
2017-03-12T03:47:52.631Z,5.81
2017-03-12T03:49:01.628Z,5.85
2017-03-12T03:50:10.637Z,5.84
2017-03-12T03:51:20.439Z,5.85
2017-03-12T03:52:29.446Z,5.82
2017-03-12T03:53:39.253Z,5.78
2017-03-12T03:54:48.273Z,5.88
2017-03-12T03:55:57.696Z,5.78
2017-03-12T03:57:07.094Z,5.75
2017-03-12T03:58:16.107Z,5.72
2017-03-12T03:59:25.508Z,5.67
2017-03-12T04:00:34.916Z,5.67
2017-03-12T04:01:43.926Z,5.69
2017-03-12T04:02:52.558Z,5.72
2017-03-12T04:04:02.364Z,5.67
2017-03-12T04:05:11.360Z,5.69
2017-03-12T04:06:19.952Z,5.6
2017-03-12T04:07:28.545Z,5.59
2017-03-12T04:08:37.159Z,5.6
2017-03-12T04:09:46.569Z,5.63
2017-03-12T04:10:55.976Z,5.6
2017-03-12T04:12:05.779Z,5.6
2017-03-12T04:13:15.573Z,5.62
2017-03-12T04:14:24.592Z,5.63
2017-03-12T04:15:34.400Z,5.59
2017-03-12T04:16:44.199Z,5.6
2017-03-12T04:17:53.604Z,5.52
2017-03-12T04:19:03.632Z,5.55
2017-03-12T04:20:12.652Z,5.57
2017-03-12T04:21:21.688Z,5.48
2017-03-12T04:22:31.082Z,5.59
2017-03-12T04:23:40.503Z,5.51
2017-03-12T04:24:49.944Z,5.52
2017-03-12T04:25:59.390Z,5.57
2017-03-12T04:27:08.809Z,5.48
2017-03-12T04:28:17.817Z,5.59
2017-03-12T04:29:26.814Z,5.45
2017-03-12T04:30:36.638Z,5.48
2017-03-12T04:31:45.251Z,5.52
2017-03-12T04:32:54.671Z,5.51
2017-03-12T04:34:03.669Z,5.55
2017-03-12T04:35:13.081Z,5.54
2017-03-12T04:36:21.695Z,5.54
2017-03-12T04:37:30.533Z,5.51
2017-03-12T04:38:40.416Z,5.48
2017-03-12T04:39:49.446Z,5.49
2017-03-12T04:40:58.958Z,5.57
2017-03-12T04:42:07.957Z,5.51
2017-03-12T04:43:16.584Z,5.52
2017-03-12T04:44:25.597Z,5.51
2017-03-12T04:45:35.005Z,5.46
2017-03-12T04:46:44.123Z,5.49
2017-03-12T04:47:53.922Z,5.48
2017-03-12T04:49:02.917Z,5.51
2017-03-12T04:50:11.513Z,5.51
2017-03-12T04:51:20.911Z,5.54
2017-03-12T04:52:30.308Z,5.52
2017-03-12T04:53:39.400Z,5.51
2017-03-12T04:54:48.128Z,5.49
2017-03-12T04:55:57.221Z,5.49
2017-03-12T04:57:06.754Z,5.51
2017-03-12T04:58:15.666Z,5.52
2017-03-12T04:59:24.362Z,5.54
2017-03-12T05:00:33.894Z,5.48
2017-03-12T05:01:42.914Z,5.48
2017-03-12T05:02:52.921Z,5.46
2017-03-12T05:04:01.534Z,5.51
2017-03-12T05:05:11.047Z,5.54
2017-03-12T05:06:20.940Z,5.48
2017-03-12T05:07:30.399Z,5.54
2017-03-12T05:08:39.083Z,5.54
2017-03-12T05:09:48.893Z,5.51
2017-03-12T05:10:58.406Z,5.52
2017-03-12T05:12:07.478Z,5.46
2017-03-12T05:13:16.905Z,5.48
2017-03-12T05:14:25.945Z,5.48
2017-03-12T05:15:34.578Z,5.48
2017-03-12T05:16:44.083Z,5.49
2017-03-12T05:17:53.151Z,5.48
2017-03-12T05:19:02.600Z,5.48
2017-03-12T05:20:11.751Z,5.49
2017-03-12T05:21:20.757Z,5.49
2017-03-12T05:22:29.468Z,5.51
2017-03-12T05:23:39.038Z,5.52
2017-03-12T05:24:47.689Z,5.45
2017-03-12T05:25:57.579Z,5.45
2017-03-12T05:27:06.211Z,5.46
2017-03-12T05:28:15.319Z,5.51
2017-03-12T05:29:24.789Z,5.51
2017-03-12T05:30:34.648Z,5.51
2017-03-12T05:31:44.560Z,5.49
2017-03-12T05:32:53.970Z,5.52
2017-03-12T05:34:03.479Z,5.48
2017-03-12T05:35:12.552Z,5.48
2017-03-12T05:36:21.636Z,5.48
2017-03-12T05:37:31.502Z,5.49
2017-03-12T05:38:40.949Z,5.45
2017-03-12T05:39:50.603Z,5.49
2017-03-12T05:41:00.405Z,5.51
2017-03-12T05:42:09.992Z,5.41
2017-03-12T05:43:19.079Z,5.46
2017-03-12T05:44:28.553Z,5.48
2017-03-12T05:45:38.045Z,5.46
2017-03-12T05:46:46.779Z,5.48
2017-03-12T05:47:56.616Z,5.46
2017-03-12T05:49:06.504Z,5.54
2017-03-12T05:50:15.657Z,5.52
2017-03-12T05:51:24.313Z,5.57
2017-03-12T05:52:33.403Z,5.6
2017-03-12T05:53:42.830Z,5.55
2017-03-12T05:54:51.828Z,5.6
2017-03-12T05:56:01.522Z,5.46
2017-03-12T05:57:10.527Z,5.54
2017-03-12T05:58:19.140Z,5.51
2017-03-12T05:59:28.550Z,5.57
2017-03-12T06:00:37.963Z,5.52
2017-03-12T06:01:47.374Z,5.57
2017-03-12T06:02:56.373Z,5.6
2017-03-12T06:04:05.772Z,5.59
2017-03-12T06:05:15.193Z,5.6
2017-03-12T06:06:23.791Z,5.63
2017-03-12T06:07:33.201Z,5.64
2017-03-12T06:08:41.809Z,5.73
2017-03-12T06:09:50.815Z,5.69
2017-03-12T06:10:59.427Z,5.67
2017-03-12T06:12:08.460Z,5.7
2017-03-12T06:13:17.472Z,5.69
2017-03-12T06:14:26.488Z,5.64
2017-03-12T06:15:35.116Z,5.69
2017-03-12T06:16:44.122Z,5.81
2017-03-12T06:17:53.926Z,5.73
2017-03-12T06:19:03.330Z,5.8
2017-03-12T06:20:12.351Z,5.73
2017-03-12T06:21:21.355Z,5.82
2017-03-12T06:22:30.362Z,5.81
2017-03-12T06:23:38.975Z,5.85
2017-03-12T06:24:48.429Z,5.85
2017-03-12T06:25:57.823Z,5.82
2017-03-12T06:27:06.453Z,5.87
2017-03-12T06:28:15.761Z,5.88
2017-03-12T06:29:24.797Z,5.98
2017-03-12T06:30:33.821Z,5.92
2017-03-12T06:31:42.825Z,6
2017-03-12T06:32:51.833Z,5.96
2017-03-12T06:34:01.251Z,6.09
2017-03-12T06:35:10.255Z,6.06
2017-03-12T06:36:18.873Z,6.02
2017-03-12T06:37:28.321Z,6.05
2017-03-12T06:38:36.935Z,6.21
2017-03-12T06:39:46.403Z,6.15
2017-03-12T06:40:55.402Z,6.2
2017-03-12T06:42:04.417Z,6.15
2017-03-12T06:43:13.440Z,6.15
2017-03-12T06:44:22.841Z,6.2
2017-03-12T06:45:32.258Z,6.28
2017-03-12T06:46:41.670Z,6.26
2017-03-12T06:47:51.065Z,6.39
2017-03-12T06:49:00.458Z,6.39
2017-03-12T06:50:09.883Z,6.39
2017-03-12T06:51:19.299Z,6.42
2017-03-12T06:52:27.928Z,6.47
2017-03-12T06:53:36.942Z,6.49
2017-03-12T06:54:45.549Z,6.55
2017-03-12T06:55:54.947Z,6.6
2017-03-12T06:57:04.349Z,6.52
2017-03-12T06:58:12.980Z,6.6
2017-03-12T06:59:22.232Z,6.7
2017-03-12T07:00:32.027Z,6.57
2017-03-12T07:01:41.434Z,6.61
2017-03-12T07:02:50.092Z,6.68
2017-03-12T07:04:00.862Z,6.68
2017-03-12T07:05:09.674Z,6.75
2017-03-12T07:06:18.684Z,6.78
2017-03-12T07:07:28.686Z,6.67
2017-03-12T07:08:38.098Z,6.83
2017-03-12T07:09:47.376Z,6.73
2017-03-12T07:10:56.432Z,6.83
2017-03-12T07:12:06.081Z,6.79
2017-03-12T07:13:14.738Z,6.82
2017-03-12T07:14:23.775Z,6.82
2017-03-12T07:15:33.190Z,6.82
2017-03-12T07:16:42.211Z,6.88
2017-03-12T07:17:50.833Z,6.88
2017-03-12T07:18:59.484Z,6.91
2017-03-12T07:20:08.493Z,6.9
2017-03-12T07:21:17.093Z,6.94
2017-03-12T07:22:26.931Z,6.85
2017-03-12T07:23:35.942Z,6.97
2017-03-12T07:24:44.954Z,7
2017-03-12T07:25:54.011Z,7.04
2017-03-12T07:27:02.645Z,7
2017-03-12T07:28:12.067Z,6.98
2017-03-12T07:29:21.485Z,6.97
2017-03-12T07:30:30.916Z,6.98
2017-03-12T07:31:40.324Z,7
2017-03-12T07:32:50.527Z,7.13
2017-03-12T07:33:59.142Z,7.08
2017-03-12T07:35:08.983Z,7.16
2017-03-12T07:36:18.385Z,7.12
2017-03-12T07:37:27.820Z,7.03
2017-03-12T07:38:37.623Z,7.08
2017-03-12T07:39:46.624Z,7.05
2017-03-12T07:40:56.294Z,7.12
2017-03-12T07:42:05.709Z,7.05
2017-03-12T07:43:15.114Z,7.12
2017-03-12T07:44:24.911Z,7.15
2017-03-12T07:45:34.327Z,7.13
2017-03-12T07:46:42.926Z,7.21
2017-03-12T07:47:52.365Z,7.21
2017-03-12T07:49:00.970Z,7.26
2017-03-12T07:50:10.393Z,7.23
2017-03-12T07:51:20.629Z,7.22
2017-03-12T07:52:30.053Z,7.29
2017-03-12T07:53:39.066Z,7.3
2017-03-12T07:54:48.876Z,7.41
2017-03-12T07:55:57.898Z,7.44
2017-03-12T07:57:06.897Z,7.37
2017-03-12T07:58:16.307Z,7.41
2017-03-12T07:59:25.722Z,7.52
2017-03-12T08:00:34.762Z,7.52
2017-03-12T08:01:44.180Z,7.54
2017-03-12T08:02:52.797Z,7.54
2017-03-12T08:04:01.909Z,7.63
2017-03-12T08:05:11.365Z,7.56
2017-03-12T08:06:20.414Z,7.68
2017-03-12T08:07:29.419Z,7.67
2017-03-12T08:08:38.835Z,7.68
2017-03-12T08:09:47.926Z,7.67
2017-03-12T08:10:57.086Z,7.71
2017-03-12T08:12:06.545Z,7.77
2017-03-12T08:13:15.161Z,7.82
2017-03-12T08:14:23.813Z,7.89
2017-03-12T08:15:32.451Z,7.82
2017-03-12T08:16:41.460Z,7.98
2017-03-12T08:17:50.477Z,7.91
2017-03-12T08:18:59.498Z,8.01
2017-03-12T08:20:08.541Z,8.1
2017-03-12T08:21:18.370Z,8.01
2017-03-12T08:22:27.395Z,8.11
2017-03-12T08:23:36.118Z,8.11
2017-03-12T08:24:44.743Z,8.17
2017-03-12T08:25:53.415Z,8.28
2017-03-12T08:27:02.089Z,8.17
2017-03-12T08:28:11.170Z,8.26
2017-03-12T08:29:21.019Z,8.34
2017-03-12T08:30:30.449Z,8.35
2017-03-12T08:31:39.477Z,8.35
2017-03-12T08:32:48.519Z,8.4
2017-03-12T08:33:58.459Z,8.36
2017-03-12T08:35:07.108Z,8.42
2017-03-12T08:36:16.923Z,8.5
2017-03-12T08:37:25.991Z,8.43
2017-03-12T08:38:35.119Z,8.53
2017-03-12T08:39:44.781Z,8.64
2017-03-12T08:40:53.805Z,8.65
2017-03-12T08:42:02.822Z,8.65
2017-03-12T08:43:11.833Z,8.65
2017-03-12T08:44:20.455Z,8.71
2017-03-12T08:45:29.052Z,8.8
2017-03-12T08:46:38.065Z,8.83
2017-03-12T08:47:46.674Z,8.94
2017-03-12T08:48:55.699Z,8.94
2017-03-12T08:50:04.325Z,8.9
2017-03-12T08:51:13.367Z,9.05
2017-03-12T08:52:22.037Z,9.12
2017-03-12T08:53:32.358Z,9.14
2017-03-12T08:54:40.962Z,9.27
2017-03-12T08:55:49.591Z,9.29
2017-03-12T08:56:58.232Z,9.37
2017-03-12T08:58:07.253Z,9.42
2017-03-12T08:59:16.286Z,9.53
2017-03-12T09:00:25.312Z,9.57
2017-03-12T09:01:34.311Z,9.64
2017-03-12T09:02:42.934Z,9.78
2017-03-12T09:03:51.953Z,9.89
2017-03-12T09:05:00.962Z,9.89
2017-03-12T09:06:10.004Z,10.07
2017-03-12T09:07:19.824Z,10.18
2017-03-12T09:08:29.242Z,10.33
2017-03-12T09:09:37.843Z,10.39
2017-03-12T09:10:46.478Z,10.52
2017-03-12T09:11:55.106Z,10.57
2017-03-12T09:13:04.149Z,10.73
2017-03-12T09:14:13.546Z,10.72
2017-03-12T09:15:23.360Z,10.77
2017-03-12T09:16:32.378Z,10.8
2017-03-12T09:17:40.995Z,10.88
2017-03-12T09:18:49.990Z,10.85
2017-03-12T09:19:59.013Z,10.97
2017-03-12T09:21:08.305Z,11.08
2017-03-12T09:22:17.332Z,11.1
2017-03-12T09:23:26.746Z,11.13
2017-03-12T09:24:35.382Z,11.24
2017-03-12T09:25:44.411Z,11.2
2017-03-12T09:26:53.834Z,11.28
2017-03-12T09:28:02.892Z,11.35
2017-03-12T09:29:11.906Z,11.43
2017-03-12T09:30:20.910Z,11.57
2017-03-12T09:31:32.924Z,11.59
2017-03-12T09:32:42.055Z,11.73
2017-03-12T09:33:50.663Z,11.68
2017-03-12T09:35:00.312Z,11.82
2017-03-12T09:36:09.076Z,11.81
2017-03-12T09:37:18.117Z,11.97
2017-03-12T09:38:27.959Z,11.89
2017-03-12T09:39:36.581Z,12.04
2017-03-12T09:40:46.025Z,12.19
2017-03-12T09:41:55.040Z,12.15
2017-03-12T09:43:03.657Z,12.16
2017-03-12T09:44:13.111Z,12.26
2017-03-12T09:45:22.265Z,12.23
2017-03-12T09:46:31.694Z,12.4
2017-03-12T09:47:40.722Z,12.45
2017-03-12T09:48:50.138Z,12.44
2017-03-12T09:49:59.227Z,12.58
2017-03-12T09:51:07.902Z,12.66
2017-03-12T09:52:17.024Z,12.65
2017-03-12T09:53:27.273Z,12.66
2017-03-12T09:54:37.537Z,12.76
2017-03-12T09:55:49.034Z,12.8
2017-03-12T09:56:59.106Z,12.83
2017-03-12T09:58:09.909Z,12.88
2017-03-12T09:59:21.386Z,12.94
2017-03-12T10:00:31.867Z,12.95
2017-03-12T10:01:43.910Z,12.99
2017-03-12T10:02:54.131Z,12.96
2017-03-12T10:04:04.145Z,12.99
2017-03-12T10:05:15.461Z,13.06
2017-03-12T10:06:26.930Z,13.03
2017-03-12T10:07:37.988Z,13.09
2017-03-12T10:08:49.498Z,13.11
2017-03-12T10:10:00.573Z,13.1
2017-03-12T10:11:11.675Z,13.13
2017-03-12T10:12:21.941Z,13.11
2017-03-12T10:13:33.033Z,13.13
2017-03-12T10:14:43.737Z,13.09
2017-03-12T10:15:53.929Z,13.09
2017-03-12T10:17:04.541Z,13.06
2017-03-12T10:18:16.131Z,13.09
2017-03-12T10:19:27.307Z,13.14
2017-03-12T10:20:38.069Z,13.11
2017-03-12T10:21:47.670Z,13.16
2017-03-12T10:22:58.739Z,13.14
2017-03-12T10:24:09.165Z,13.11
2017-03-12T10:25:19.881Z,13.16
2017-03-12T10:26:30.240Z,13.19
2017-03-12T10:27:40.907Z,13.19
2017-03-12T10:28:50.391Z,13.16
2017-03-12T10:30:00.483Z,13.1
2017-03-12T10:31:10.381Z,13.2
2017-03-12T10:32:21.644Z,13.21
2017-03-12T10:33:33.770Z,13.11
2017-03-12T10:34:45.859Z,13.09
2017-03-12T10:35:54.997Z,13.06
2017-03-12T10:37:05.802Z,12.98
2017-03-12T10:38:15.423Z,12.98
2017-03-12T10:39:25.281Z,13.09
2017-03-12T10:40:34.693Z,12.99
2017-03-12T10:41:43.731Z,13.07
2017-03-12T10:42:52.801Z,13.19
2017-03-12T10:44:02.743Z,13.1
2017-03-12T10:45:11.786Z,13.17
2017-03-12T10:46:20.849Z,13.21
2017-03-12T10:47:29.903Z,13.17
2017-03-12T10:48:38.971Z,13.17
2017-03-12T10:49:49.253Z,13.2
2017-03-12T10:50:58.758Z,13.14
2017-03-12T10:52:08.240Z,13.17
2017-03-12T10:53:17.712Z,13.17
2017-03-12T10:54:27.199Z,13.2
2017-03-12T10:55:36.225Z,13.24
2017-03-12T10:56:45.263Z,13.21
2017-03-12T10:57:54.716Z,13.28
2017-03-12T10:59:03.753Z,13.35
2017-03-12T11:00:12.391Z,13.35
2017-03-12T11:01:21.007Z,13.32
2017-03-12T11:02:30.053Z,13.42
2017-03-12T11:03:39.115Z,13.47
2017-03-12T11:04:47.746Z,13.42
2017-03-12T11:05:57.169Z,13.5
2017-03-12T11:07:06.621Z,13.45
2017-03-12T11:08:15.270Z,13.57
2017-03-12T11:09:23.884Z,13.55
2017-03-12T11:10:33.159Z,13.66
2017-03-12T11:11:41.791Z,13.68
2017-03-12T11:12:50.452Z,13.68
2017-03-12T11:13:59.896Z,13.75
2017-03-12T11:15:08.963Z,13.81
2017-03-12T11:16:18.397Z,13.93
2017-03-12T11:17:27.399Z,13.87
2017-03-12T11:18:36.001Z,13.95
2017-03-12T11:19:45.822Z,13.97
2017-03-12T11:20:54.727Z,14.02
2017-03-12T11:22:03.728Z,13.97
2017-03-12T11:23:13.146Z,14.05
2017-03-12T11:24:22.549Z,14.03
2017-03-12T11:25:31.151Z,13.95
2017-03-12T11:26:40.152Z,13.91
2017-03-12T11:27:49.162Z,13.91
2017-03-12T11:28:58.173Z,13.88
2017-03-12T11:30:06.781Z,13.97
2017-03-12T11:31:15.399Z,13.93
2017-03-12T11:32:24.462Z,13.97
2017-03-12T11:33:33.514Z,14.02
2017-03-12T11:34:43.498Z,13.95
2017-03-12T11:35:52.995Z,13.97
2017-03-12T11:37:05.413Z,13.9
2017-03-12T11:38:14.869Z,13.94
2017-03-12T11:39:23.890Z,13.91
2017-03-12T11:40:32.908Z,13.94
2017-03-12T11:41:41.924Z,13.83
2017-03-12T11:42:50.949Z,13.93
2017-03-12T11:43:59.986Z,13.9
2017-03-12T11:45:09.399Z,13.95
2017-03-12T11:46:18.412Z,13.97
2017-03-12T11:47:29.236Z,13.97
2017-03-12T11:48:41.615Z,14.01
2017-03-12T11:49:52.351Z,13.95
2017-03-12T11:51:03.947Z,14.08
2017-03-12T11:52:14.589Z,14.01
2017-03-12T11:53:25.709Z,14.05
2017-03-12T11:54:36.368Z,14.06
2017-03-12T11:55:46.751Z,14.05
2017-03-12T11:56:58.897Z,14.13
2017-03-12T11:58:09.883Z,14.05
2017-03-12T11:59:21.958Z,14.26
2017-03-12T12:00:34.029Z,14.19
2017-03-12T12:01:43.964Z,14.21
2017-03-12T12:02:52.982Z,14.31
2017-03-12T12:04:02.787Z,14.2
2017-03-12T12:05:11.397Z,14.24
2017-03-12T12:06:21.223Z,14.26
2017-03-12T12:07:30.228Z,14.23
2017-03-12T12:08:39.648Z,14.31
2017-03-12T12:09:49.050Z,14.23
2017-03-12T12:10:58.495Z,14.23
2017-03-12T12:12:07.125Z,14.27
2017-03-12T12:13:16.151Z,14.24
2017-03-12T12:14:26.016Z,14.3
2017-03-12T12:15:35.035Z,14.28
2017-03-12T12:16:43.673Z,14.28
2017-03-12T12:17:53.563Z,14.34
2017-03-12T12:19:04.598Z,14.34
2017-03-12T12:20:15.738Z,14.34
2017-03-12T12:21:27.884Z,14.36
2017-03-12T12:22:39.895Z,14.31
2017-03-12T12:23:52.209Z,14.38
2017-03-12T12:25:04.287Z,14.3
2017-03-12T12:26:15.014Z,14.33
2017-03-12T12:27:26.220Z,14.36
2017-03-12T12:28:38.403Z,14.41
2017-03-12T12:29:48.318Z,14.36
2017-03-12T12:31:00.076Z,14.3
2017-03-12T12:32:10.860Z,14.33
2017-03-12T12:33:22.825Z,14.33
2017-03-12T12:34:32.414Z,14.31
2017-03-12T12:35:43.877Z,14.34
2017-03-12T12:36:54.629Z,14.46
2017-03-12T12:38:06.224Z,14.36
2017-03-12T12:39:17.016Z,14.39
2017-03-12T12:40:26.518Z,14.42
2017-03-12T12:41:37.702Z,14.46
2017-03-12T12:42:46.838Z,14.56
2017-03-12T12:43:58.428Z,14.52
2017-03-12T12:45:08.008Z,14.49
2017-03-12T12:46:19.651Z,14.6
2017-03-12T12:47:30.040Z,14.52
2017-03-12T12:48:39.671Z,14.56
2017-03-12T12:49:51.621Z,14.71
2017-03-12T12:52:41.377Z,14.75
2017-03-12T12:53:53.332Z,14.77
2017-03-12T12:55:05.429Z,14.79
2017-03-12T12:56:17.606Z,14.77
2017-03-12T12:57:28.726Z,14.77
2017-03-12T12:58:40.343Z,14.89
2017-03-12T12:59:50.902Z,14.86
2017-03-12T13:01:00.775Z,14.85
2017-03-12T13:02:11.449Z,14.86
2017-03-12T13:03:21.989Z,14.79
2017-03-12T13:04:33.397Z,14.87
2017-03-12T13:05:45.127Z,14.83
2017-03-12T13:06:56.705Z,14.82
2017-03-12T13:08:07.565Z,14.8
2017-03-12T13:09:16.453Z,14.85
2017-03-12T13:10:25.729Z,14.89
2017-03-12T13:11:34.352Z,14.9
2017-03-12T13:12:42.977Z,14.9
2017-03-12T13:13:52.012Z,14.93
2017-03-12T13:15:00.677Z,14.9
2017-03-12T13:16:10.101Z,14.93
2017-03-12T13:17:19.227Z,15.01
2017-03-12T13:18:28.637Z,15.04
2017-03-12T13:19:37.822Z,15.12
2017-03-12T13:20:47.268Z,15.08
2017-03-12T13:21:56.338Z,15.13
2017-03-12T13:23:05.770Z,15.15
2017-03-12T13:24:15.219Z,15.16
2017-03-12T13:25:24.641Z,15.18
2017-03-12T13:26:33.655Z,15.27
2017-03-12T13:27:42.711Z,15.3
2017-03-12T13:28:51.736Z,15.27
2017-03-12T13:30:00.845Z,15.25
2017-03-12T13:31:10.300Z,15.33
2017-03-12T13:32:19.752Z,15.41
2017-03-12T13:33:29.619Z,15.4
2017-03-12T13:34:38.661Z,15.43
2017-03-12T13:35:47.625Z,15.38
2017-03-12T13:36:57.110Z,15.44
2017-03-12T13:38:06.602Z,15.43
2017-03-12T13:39:15.670Z,15.4
2017-03-12T13:40:25.119Z,15.33
2017-03-12T13:41:33.763Z,15.33
2017-03-12T13:42:43.271Z,15.26
2017-03-12T13:43:52.338Z,15.27
2017-03-12T13:45:01.535Z,15.13
2017-03-12T13:46:11.093Z,15.26
2017-03-12T13:47:19.733Z,15.1
2017-03-12T13:48:28.803Z,15.18
2017-03-12T13:49:37.854Z,15.19
2017-03-12T13:50:46.890Z,15.19
2017-03-12T13:51:55.926Z,15.27
2017-03-12T13:53:04.581Z,15.3
2017-03-12T13:54:13.216Z,15.33
2017-03-12T13:55:21.860Z,15.22
2017-03-12T13:56:30.898Z,15.3
2017-03-12T13:57:39.807Z,15.37
2017-03-12T13:58:49.655Z,15.43
2017-03-12T13:59:59.483Z,15.45
2017-03-12T14:01:08.137Z,15.45
2017-03-12T14:02:17.211Z,15.34
2017-03-12T14:03:26.252Z,15.44
2017-03-12T14:04:35.322Z,15.45
2017-03-12T14:05:44.791Z,15.47
2017-03-12T14:06:53.842Z,15.52
2017-03-12T14:08:03.313Z,15.56
2017-03-12T14:09:12.363Z,15.62
2017-03-12T14:10:22.181Z,15.68
2017-03-12T14:11:31.190Z,15.65
2017-03-12T14:12:39.801Z,15.8
2017-03-12T14:13:49.626Z,15.74
2017-03-12T14:14:59.166Z,15.8
2017-03-12T14:16:07.813Z,15.78
2017-03-12T14:17:17.085Z,15.88
2017-03-12T14:18:26.886Z,15.88
2017-03-12T14:19:36.714Z,15.92
2017-03-12T14:20:46.215Z,16.02
2017-03-12T14:21:55.264Z,16
2017-03-12T14:23:04.668Z,16.06
2017-03-12T14:24:14.140Z,16.08
2017-03-12T14:25:23.568Z,16.06
2017-03-12T14:26:32.188Z,16.06
2017-03-12T14:27:41.364Z,16.11
2017-03-12T14:28:50.785Z,16.17
2017-03-12T14:29:59.432Z,16.17
2017-03-12T14:31:08.472Z,16.11
2017-03-12T14:32:17.387Z,16.17
2017-03-12T14:33:26.802Z,16.18
2017-03-12T14:34:36.236Z,16.22
2017-03-12T14:35:45.241Z,16.29
2017-03-12T14:36:54.272Z,16.27
2017-03-12T14:38:03.368Z,16.22
2017-03-12T14:39:12.396Z,16.25
2017-03-12T14:40:21.428Z,16.3
2017-03-12T14:41:30.459Z,16.29
2017-03-12T14:42:39.874Z,16.26
2017-03-12T14:43:49.303Z,16.37
2017-03-12T14:44:58.362Z,16.36
2017-03-12T14:46:07.003Z,16.33
2017-03-12T14:47:16.026Z,16.29
2017-03-12T14:48:25.441Z,16.34
2017-03-12T14:49:34.467Z,16.32
2017-03-12T14:50:43.491Z,16.29
2017-03-12T14:51:53.293Z,16.45
2017-03-12T14:53:02.702Z,16.34
2017-03-12T14:54:12.107Z,16.3
2017-03-12T14:55:21.132Z,16.32
2017-03-12T14:56:30.535Z,16.33
2017-03-12T14:57:39.170Z,16.45
2017-03-12T14:58:48.601Z,16.33
2017-03-12T14:59:57.620Z,16.32
2017-03-12T15:01:06.645Z,16.33
2017-03-12T15:02:15.662Z,16.34
2017-03-12T15:03:24.681Z,16.34
2017-03-12T15:04:33.617Z,16.32
2017-03-12T15:05:42.622Z,16.25
2017-03-12T15:06:51.719Z,16.3
2017-03-12T15:08:01.290Z,16.33
2017-03-12T15:09:10.313Z,16.33
2017-03-12T15:10:18.937Z,16.27
2017-03-12T15:11:27.548Z,16.26
2017-03-12T15:12:36.645Z,16.29
2017-03-12T15:13:45.666Z,16.3
2017-03-12T15:14:54.278Z,16.27
2017-03-12T15:16:04.163Z,16.27
2017-03-12T15:17:13.662Z,16.18